Погода Храмцовона неделю

Минская область, Белоруссия

22 - 28 мая
  • 22мая
    Сегодня
    +12°
    +22°
    Небольшая облачность и лёгкий дождик
    ВремяПогодаТемператураВлажностьДавлениеВетер, м/сВероятность осадков
    00:00Пасмурно, дождь+13°C92 %744 мм2.6 м/с24 %
    03:00Небольшая облачность+13°C97 %744 мм2.0 м/с34 %
    06:00Практически безоблачно+12°C95 %744 мм4.5 м/с32 %
    09:00Ясно и безоблачно+17°C79 %745 мм4.3 м/с2 %
    12:00Облачно с прояснениями+20°C65 %745 мм5.2 м/с22 %
    15:00Небольшая облачность и лёгкий дождик+21°C56 %744 мм5.3 м/с37 %
    18:00Небольшая облачность+21°C60 %744 мм4.5 м/с28 %
    21:00Небольшая облачность+18°C75 %745 мм3.4 м/с25 %
  • 23мая
    Четверг
    +12°
    +23°
    Небольшая облачность
    ВремяПогодаТемператураВлажностьДавлениеВетер, м/сВероятность осадков
    00:00Небольшая облачность+14°C88 %745 мм3.8 м/с5 %
    03:00Ясно и безоблачно+13°C96 %745 мм3.8 м/с2 %
    06:00Практически безоблачно+12°C95 %746 мм4.0 м/с2 %
    09:00Практически безоблачно+18°C82 %747 мм4.9 м/с2 %
    12:00Практически безоблачно+21°C63 %747 мм6.0 м/с24 %
    15:00Небольшая облачность+22°C59 %747 мм6.3 м/с43 %
    18:00Облачно с прояснениями, небольшой дождь+21°C58 %747 мм6.1 м/с50 %
    21:00Практически безоблачно+18°C73 %748 мм4.8 м/с13 %
  • 24мая
    Пятница
    +11°
    +23°
    Практически безоблачно
    ВремяПогодаТемператураВлажностьДавлениеВетер, м/сВероятность осадков
    00:00Ясно и безоблачно+15°C80 %748 мм5.1 м/с2 %
    03:00Ясно и безоблачно+14°C83 %749 мм4.8 м/с2 %
    06:00Ясно и безоблачно+13°C80 %750 мм5.2 м/с2 %
    09:00Ясно и безоблачно+18°C65 %751 мм5.6 м/с1 %
    12:00Ясно и безоблачно+21°C57 %751 мм5.6 м/с2 %
    15:00Практически безоблачно+23°C53 %751 мм6.4 м/с11 %
    18:00Небольшая облачность+23°C53 %750 мм6.4 м/с20 %
    21:00Небольшая облачность+18°C61 %750 мм4.8 м/с6 %
  • 25мая
    Суббота
    +11°
    +24°
    Облачно с прояснениями
    ВремяПогодаТемператураВлажностьДавлениеВетер, м/сВероятность осадков
    00:00Ясно и безоблачно+15°C68 %750 мм4.7 м/с2 %
    03:00Небольшая облачность+13°C75 %750 мм4.1 м/с3 %
    06:00Облачно с прояснениями+11°C76 %750 мм4.3 м/с6 %
    09:00Небольшая облачность+18°C64 %750 мм4.7 м/с8 %
    12:00Облачно с прояснениями+22°C55 %750 мм4.9 м/с14 %
    15:00Облачно с прояснениями+23°C50 %749 мм6.0 м/с27 %
    18:00Облачно с прояснениями+23°C50 %749 мм5.0 м/с43 %
    21:00Облачно с прояснениями+19°C60 %748 мм3.4 м/с13 %
  • 26мая
    Воскресенье
    +10°
    +24°
    Ясно и безоблачно
    ВремяПогодаТемператураВлажностьДавлениеВетер, м/сВероятность осадков
    00:00Облачно с прояснениями+14°C62 %749 мм4.0 м/с9 %
    03:00Облачно с прояснениями+12°C63 %749 мм3.6 м/с13 %
    06:00Небольшая облачность+11°C70 %749 мм2.7 м/с12 %
    09:00Облачно с прояснениями+18°C60 %750 мм3.1 м/с12 %
    12:00Облачно с прояснениями+22°C37 %750 мм4.0 м/с12 %
    15:00Ясно и безоблачно+23°C35 %750 мм4.3 м/с17 %
    18:00Ясно и безоблачно+23°C37 %749 мм4.0 м/с14 %
    21:00Ясно и безоблачно+19°C57 %749 мм2.5 м/с10 %
Мы используем cookies
Соглашаюсь